createdAt,value
2017-06-21T00:07:04.954Z,1009.7
2017-06-21T00:17:14.611Z,1009.6
2017-06-21T00:27:24.343Z,1009.6
2017-06-21T00:37:33.997Z,1009.8
2017-06-21T00:47:43.713Z,1009.7
2017-06-21T00:57:53.449Z,1009.6
2017-06-21T01:08:03.255Z,1009.7
2017-06-21T01:18:13.113Z,1009.7
2017-06-21T01:28:22.954Z,1009.8
2017-06-21T01:38:32.909Z,1009.8
2017-06-21T01:48:42.778Z,1009.8
2017-06-21T01:58:52.729Z,1009.9
2017-06-21T02:09:02.688Z,1009.8
2017-06-21T02:19:12.658Z,1009.7
2017-06-21T02:29:22.678Z,1009.7
2017-06-21T02:39:32.773Z,1009.7
2017-06-21T02:49:42.795Z,1009.7
2017-06-21T02:59:52.817Z,1009.6
2017-06-21T03:10:02.899Z,1009.7
2017-06-21T03:20:12.992Z,1009.5
2017-06-21T03:30:22.968Z,1009.6
2017-06-21T03:40:32.874Z,1009.5
2017-06-21T03:50:42.744Z,1009.5
2017-06-21T04:00:52.546Z,1009.3
2017-06-21T04:11:02.188Z,1009.4
2017-06-21T04:21:11.691Z,1009.5
2017-06-21T04:31:21.159Z,1009.5
2017-06-21T04:41:30.537Z,1009.4
2017-06-21T04:51:39.879Z,1009.5
2017-06-21T05:01:49.149Z,1009.6
2017-06-21T05:11:58.312Z,1009.6
2017-06-21T05:22:07.339Z,1009.7
2017-06-21T05:32:16.291Z,1009.7
2017-06-21T05:42:25.191Z,1009.9
2017-06-21T05:52:34.014Z,1009.9
2017-06-21T06:02:42.830Z,1009.9
2017-06-21T06:12:51.824Z,1009.8
2017-06-21T06:23:00.265Z,1009.8
2017-06-21T06:33:08.831Z,1009.7
2017-06-21T06:43:17.300Z,1009.6
2017-06-21T06:53:25.677Z,1009.6
2017-06-21T07:03:34.027Z,1009.4
2017-06-21T07:13:42.308Z,1009.5
2017-06-21T07:23:50.499Z,1009.5
2017-06-21T07:33:58.559Z,1009.4
2017-06-21T07:44:06.540Z,1009.4
2017-06-21T07:54:14.417Z,1009.4
2017-06-21T08:04:22.195Z,1009.3
2017-06-21T08:14:29.807Z,1009.3
2017-06-21T08:24:37.320Z,1009.3
2017-06-21T08:34:44.707Z,1009.3
2017-06-21T08:44:51.997Z,1009.2
2017-06-21T08:54:59.338Z,1009.1
2017-06-21T09:05:06.657Z,1009.2
2017-06-21T09:15:13.892Z,1009.2
2017-06-21T09:25:21.030Z,1009
2017-06-21T09:35:28.165Z,1009
2017-06-21T09:45:35.231Z,1009
2017-06-21T09:55:42.272Z,1008.9
2017-06-21T10:05:49.285Z,1009
2017-06-21T10:15:56.356Z,1009
2017-06-21T10:26:03.306Z,1009
2017-06-21T10:36:10.163Z,1009.1
2017-06-21T10:46:16.976Z,1009.1
2017-06-21T10:56:23.841Z,1009
2017-06-21T11:06:30.723Z,1009
2017-06-21T11:16:37.608Z,1008.8
2017-06-21T11:26:44.374Z,1008.7
2017-06-21T11:36:50.981Z,1008.6
2017-06-21T11:46:57.532Z,1008.5
2017-06-21T11:57:04.150Z,1008.3
2017-06-21T12:07:10.763Z,1008.1
2017-06-21T12:17:17.360Z,1008.1
2017-06-21T12:27:23.993Z,1008.1
2017-06-21T12:37:30.551Z,1008
2017-06-21T12:47:36.987Z,1007.7
2017-06-21T12:57:43.311Z,1007.7
2017-06-21T13:07:49.573Z,1007.5
2017-06-21T13:17:55.827Z,1007.4
2017-06-21T13:28:02.167Z,1007.4
2017-06-21T13:38:08.475Z,1007.3
2017-06-21T13:48:14.791Z,1007.2
2017-06-21T13:58:21.158Z,1007.1
2017-06-21T14:08:27.514Z,1006.8
2017-06-21T14:18:33.628Z,1006.8
2017-06-21T14:28:39.841Z,1006.6
2017-06-21T14:38:45.840Z,1006.5
2017-06-21T14:48:51.899Z,1006.4
2017-06-21T14:58:57.934Z,1006.4
2017-06-21T15:09:04.322Z,1006.4
2017-06-21T15:19:10.628Z,1006.3
2017-06-21T15:29:17.050Z,1006.2
2017-06-21T15:39:23.481Z,1006.1
2017-06-21T15:49:29.719Z,1006.1
2017-06-21T15:59:35.922Z,1006
2017-06-21T16:09:42.177Z,1006
2017-06-21T16:19:48.403Z,1005.9
2017-06-21T16:29:54.587Z,1005.8
2017-06-21T16:40:00.790Z,1005.7
2017-06-21T16:50:07.016Z,1005.6
2017-06-21T17:00:13.397Z,1005.7
2017-06-21T17:10:19.795Z,1005.7
2017-06-21T17:20:26.343Z,1005.5
2017-06-21T17:30:32.952Z,1005.4
2017-06-21T17:40:39.939Z,1005.6
2017-06-21T17:50:47.181Z,1005.6
2017-06-21T18:00:54.309Z,1005.6
2017-06-21T18:11:01.529Z,1005.5
2017-06-21T18:21:08.929Z,1005.4
2017-06-21T18:31:16.462Z,1005.3
2017-06-21T18:41:23.937Z,1005.3
2017-06-21T18:51:31.456Z,1005.2
2017-06-21T19:01:39.178Z,1005.2
2017-06-21T19:11:47.066Z,1005.3
2017-06-21T19:21:55.044Z,1005.4
2017-06-21T19:32:03.105Z,1005.4
2017-06-21T19:42:11.248Z,1005.5
2017-06-21T19:52:19.414Z,1005.5
2017-06-21T20:02:27.692Z,1005.5
2017-06-21T20:12:35.982Z,1005.5
2017-06-21T20:22:44.309Z,1005.7
2017-06-21T20:32:52.650Z,1005.7
2017-06-21T20:43:01.100Z,1005.6
2017-06-21T20:53:09.600Z,1005.7
2017-06-21T21:03:18.075Z,1005.8
2017-06-21T21:13:26.675Z,1005.8
2017-06-21T21:23:35.139Z,1005.7
2017-06-21T21:33:43.711Z,1005.5
2017-06-21T21:43:52.325Z,1005.5
2017-06-21T21:54:00.972Z,1005.4
2017-06-21T22:04:09.642Z,1005.4
2017-06-21T22:14:18.302Z,1005.5
2017-06-21T22:24:26.989Z,1005.5
2017-06-21T22:34:35.714Z,1005.4
2017-06-21T22:44:44.453Z,1005.3
2017-06-21T22:54:53.180Z,1005.2
2017-06-21T23:05:01.883Z,1005
2017-06-21T23:15:10.564Z,1004.9
2017-06-21T23:25:19.252Z,1004.7
2017-06-21T23:35:27.924Z,1004.6
2017-06-21T23:45:36.608Z,1004.4
2017-06-21T23:55:45.261Z,1004.2
